sensor_id;sensor_type;location;lat;lon;timestamp;pressure;altitude;pressure_sealevel;temperature;humidity
42633;BME280;28261;53.304;-6.284;2022-10-28T00:31:02;99752.19;;;14.11;100.00
42633;BME280;28261;53.304;-6.284;2022-10-28T01:41:47;99544.50;;;13.92;100.00
42633;BME280;28261;53.304;-6.284;2022-10-28T02:15:48;99393.84;;;13.97;100.00
42633;BME280;28261;53.304;-6.284;2022-10-28T02:18:20;99398.31;;;13.97;100.00
42633;BME280;28261;53.304;-6.284;2022-10-28T05:10:34;99463.97;;;10.87;100.00
42633;BME280;28261;53.304;-6.284;2022-10-28T05:19:51;99512.22;;;10.81;100.00
42633;BME280;28261;53.304;-6.284;2022-10-28T05:23:13;99533.44;;;10.81;100.00
42633;BME280;28261;53.304;-6.284;2022-10-28T07:04:05;99895.63;;;10.04;100.00
42633;BME280;28261;53.304;-6.284;2022-10-28T07:39:39;100033.97;;;10.30;100.00
42633;BME280;28261;53.304;-6.284;2022-10-28T07:41:43;100035.44;;;10.35;100.00
42633;BME280;28261;53.304;-6.284;2022-10-28T07:43:47;100038.00;;;10.36;100.00
42633;BME280;28261;53.304;-6.284;2022-10-28T07:45:55;100051.97;;;10.38;100.00
42633;BME280;28261;53.304;-6.284;2022-10-28T07:47:58;100052.69;;;10.40;100.00
42633;BME280;28261;53.304;-6.284;2022-10-28T07:50:03;100054.38;;;10.41;100.00
42633;BME280;28261;53.304;-6.284;2022-10-28T07:52:08;100061.25;;;10.44;100.00
42633;BME280;28261;53.304;-6.284;2022-10-28T07:54:11;100075.81;;;10.49;100.00
42633;BME280;28261;53.304;-6.284;2022-10-28T07:56:16;100078.47;;;10.49;100.00
42633;BME280;28261;53.304;-6.284;2022-10-28T07:58:20;100081.97;;;10.50;100.00
42633;BME280;28261;53.304;-6.284;2022-10-28T08:00:23;100088.72;;;10.54;100.00
42633;BME280;28261;53.304;-6.284;2022-10-28T08:02:27;100095.59;;;10.57;100.00
42633;BME280;28261;53.304;-6.284;2022-10-28T08:04:30;100102.34;;;10.61;100.00
42633;BME280;28261;53.304;-6.284;2022-10-28T08:06:34;100096.81;;;10.64;100.00
42633;BME280;28261;53.304;-6.284;2022-10-28T08:08:39;100102.94;;;10.64;100.00
42633;BME280;28261;53.304;-6.284;2022-10-28T08:10:45;100109.09;;;10.65;100.00
42633;BME280;28261;53.304;-6.284;2022-10-28T08:12:50;100107.66;;;10.61;100.00
42633;BME280;28261;53.304;-6.284;2022-10-28T08:14:53;100111.13;;;10.61;100.00
42633;BME280;28261;53.304;-6.284;2022-10-28T08:17:01;100117.06;;;10.65;100.00
42633;BME280;28261;53.304;-6.284;2022-10-28T08:19:13;100118.72;;;10.66;100.00
42633;BME280;28261;53.304;-6.284;2022-10-28T08:21:16;100124.66;;;10.70;100.00
42633;BME280;28261;53.304;-6.284;2022-10-28T08:23:20;100119.97;;;10.73;100.00
42633;BME280;28261;53.304;-6.284;2022-10-28T08:25:23;100127.16;;;10.71;100.00
42633;BME280;28261;53.304;-6.284;2022-10-28T08:27:27;100129.81;;;10.71;100.00
42633;BME280;28261;53.304;-6.284;2022-10-28T08:29:33;100131.03;;;10.67;100.00
42633;BME280;28261;53.304;-6.284;2022-10-28T08:31:36;100138.72;;;10.70;100.00
42633;BME280;28261;53.304;-6.284;2022-10-28T08:33:42;100137.66;;;10.73;100.00
42633;BME280;28261;53.304;-6.284;2022-10-28T08:35:49;100145.47;;;10.74;100.00
42633;BME280;28261;53.304;-6.284;2022-10-28T08:37:52;100154.19;;;10.76;100.00
42633;BME280;28261;53.304;-6.284;2022-10-28T08:39:56;100153.94;;;10.79;100.00
42633;BME280;28261;53.304;-6.284;2022-10-28T08:42:08;100162.50;;;10.83;100.00
42633;BME280;28261;53.304;-6.284;2022-10-28T08:47:05;100166.25;;;10.92;100.00
42633;BME280;28261;53.304;-6.284;2022-10-28T08:49:14;100173.75;;;10.98;100.00
42633;BME280;28261;53.304;-6.284;2022-10-28T08:51:23;100167.81;;;11.06;100.00
42633;BME280;28261;53.304;-6.284;2022-10-28T08:53:36;100172.91;;;11.20;100.00
42633;BME280;28261;53.304;-6.284;2022-10-28T08:55:46;100170.59;;;11.38;100.00
42633;BME280;28261;53.304;-6.284;2022-10-28T08:57:53;100176.50;;;11.53;100.00
42633;BME280;28261;53.304;-6.284;2022-10-28T08:59:58;100182.25;;;11.69;100.00
42633;BME280;28261;53.304;-6.284;2022-10-28T09:02:17;100179.91;;;11.88;100.00
42633;BME280;28261;53.304;-6.284;2022-10-28T09:04:27;100194.66;;;12.03;100.00
42633;BME280;28261;53.304;-6.284;2022-10-28T09:06:34;100198.72;;;12.18;100.00
42633;BME280;28261;53.304;-6.284;2022-10-28T09:08:40;100207.63;;;12.29;100.00
42633;BME280;28261;53.304;-6.284;2022-10-28T09:10:59;100215.66;;;12.39;100.00
42633;BME280;28261;53.304;-6.284;2022-10-28T09:13:06;100221.06;;;12.48;100.00
42633;BME280;28261;53.304;-6.284;2022-10-28T09:15:23;100223.09;;;12.56;99.98
42633;BME280;28261;53.304;-6.284;2022-10-28T09:17:38;100224.81;;;12.67;100.00
42633;BME280;28261;53.304;-6.284;2022-10-28T09:19:47;100218.59;;;12.78;100.00
42633;BME280;28261;53.304;-6.284;2022-10-28T09:21:59;100221.59;;;12.84;99.93
42633;BME280;28261;53.304;-6.284;2022-10-28T09:24:14;100225.34;;;12.82;99.60
42633;BME280;28261;53.304;-6.284;2022-10-28T09:26:25;100222.31;;;12.86;100.00
42633;BME280;28261;53.304;-6.284;2022-10-28T09:28:49;100228.78;;;12.94;99.39
42633;BME280;28261;53.304;-6.284;2022-10-28T09:31:01;100231.66;;;13.02;99.07
42633;BME280;28261;53.304;-6.284;2022-10-28T09:33:20;100223.66;;;13.02;99.09
42633;BME280;28261;53.304;-6.284;2022-10-28T09:35:32;100225.81;;;13.08;99.78
42633;BME280;28261;53.304;-6.284;2022-10-28T09:37:41;100226.25;;;13.13;98.93
42633;BME280;28261;53.304;-6.284;2022-10-28T09:39:50;100236.38;;;13.19;99.76
42633;BME280;28261;53.304;-6.284;2022-10-28T09:41:58;100239.91;;;13.30;98.64
42633;BME280;28261;53.304;-6.284;2022-10-28T09:44:09;100240.13;;;13.38;97.88
42633;BME280;28261;53.304;-6.284;2022-10-28T09:46:17;100249.41;;;13.44;97.52
42633;BME280;28261;53.304;-6.284;2022-10-28T09:48:25;100247.91;;;13.51;97.47
42633;BME280;28261;53.304;-6.284;2022-10-28T09:50:31;100253.13;;;13.62;96.89
42633;BME280;28261;53.304;-6.284;2022-10-28T09:52:38;100254.97;;;13.62;95.69
42633;BME280;28261;53.304;-6.284;2022-10-28T09:54:48;100252.84;;;13.65;96.06
42633;BME280;28261;53.304;-6.284;2022-10-28T09:56:52;100256.09;;;13.69;95.14
42633;BME280;28261;53.304;-6.284;2022-10-28T09:58:58;100255.81;;;13.72;94.46
42633;BME280;28261;53.304;-6.284;2022-10-28T10:01:04;100267.50;;;13.81;94.72
42633;BME280;28261;53.304;-6.284;2022-10-28T10:03:08;100273.69;;;13.91;93.90
42633;BME280;28261;53.304;-6.284;2022-10-28T10:05:15;100272.19;;;13.98;93.71
42633;BME280;28261;53.304;-6.284;2022-10-28T10:07:30;100278.38;;;14.09;92.91
42633;BME280;28261;53.304;-6.284;2022-10-28T10:09:36;100280.50;;;14.15;90.89
42633;BME280;28261;53.304;-6.284;2022-10-28T10:11:44;100282.47;;;14.22;91.77
42633;BME280;28261;53.304;-6.284;2022-10-28T10:13:49;100286.69;;;14.35;91.51
42633;BME280;28261;53.304;-6.284;2022-10-28T10:15:57;100286.44;;;14.38;90.88
42633;BME280;28261;53.304;-6.284;2022-10-28T10:18:05;100288.97;;;14.39;90.96
42633;BME280;28261;53.304;-6.284;2022-10-28T10:20:16;100286.59;;;14.46;90.05
42633;BME280;28261;53.304;-6.284;2022-10-28T10:22:28;100285.44;;;14.49;89.43
42633;BME280;28261;53.304;-6.284;2022-10-28T10:24:33;100289.41;;;14.54;89.31
42633;BME280;28261;53.304;-6.284;2022-10-28T10:26:37;100287.28;;;14.58;89.45
42633;BME280;28261;53.304;-6.284;2022-10-28T10:28:44;100288.56;;;14.64;89.58
42633;BME280;28261;53.304;-6.284;2022-10-28T10:30:49;100292.38;;;14.71;89.56
42633;BME280;28261;53.304;-6.284;2022-10-28T10:32:55;100291.81;;;14.77;89.18
42633;BME280;28261;53.304;-6.284;2022-10-28T10:35:03;100290.69;;;14.80;89.02
42633;BME280;28261;53.304;-6.284;2022-10-28T10:37:17;100298.41;;;14.83;88.39
42633;BME280;28261;53.304;-6.284;2022-10-28T10:39:25;100296.28;;;14.86;87.55
42633;BME280;28261;53.304;-6.284;2022-10-28T10:41:33;100305.56;;;14.82;87.60
42633;BME280;28261;53.304;-6.284;2022-10-28T10:43:37;100308.66;;;14.87;88.17
42633;BME280;28261;53.304;-6.284;2022-10-28T10:45:49;100314.69;;;14.89;87.28
42633;BME280;28261;53.304;-6.284;2022-10-28T10:48:13;100306.44;;;14.93;87.57
42633;BME280;28261;53.304;-6.284;2022-10-28T10:50:22;100312.31;;;14.96;86.71
42633;BME280;28261;53.304;-6.284;2022-10-28T10:52:28;100322.97;;;14.96;86.74
42633;BME280;28261;53.304;-6.284;2022-10-28T10:54:32;100320.72;;;15.01;87.39
42633;BME280;28261;53.304;-6.284;2022-10-28T10:56:36;100321.84;;;15.09;87.30
42633;BME280;28261;53.304;-6.284;2022-10-28T10:58:48;100322.69;;;15.09;86.82
42633;BME280;28261;53.304;-6.284;2022-10-28T11:00:55;100321.00;;;15.08;86.99
42633;BME280;28261;53.304;-6.284;2022-10-28T11:03:00;100330.28;;;15.14;86.74
42633;BME280;28261;53.304;-6.284;2022-10-28T11:05:08;100339.13;;;15.14;85.48
42633;BME280;28261;53.304;-6.284;2022-10-28T11:07:13;100332.66;;;15.07;85.81
42633;BME280;28261;53.304;-6.284;2022-10-28T11:09:25;100337.19;;;15.06;86.29
42633;BME280;28261;53.304;-6.284;2022-10-28T11:11:34;100340.53;;;15.09;86.51
42633;BME280;28261;53.304;-6.284;2022-10-28T11:13:38;100336.16;;;15.07;86.07
42633;BME280;28261;53.304;-6.284;2022-10-28T11:15:58;100351.66;;;15.04;84.96
42633;BME280;28261;53.304;-6.284;2022-10-28T11:18:13;100344.63;;;15.03;85.12
42633;BME280;28261;53.304;-6.284;2022-10-28T11:20:22;100341.13;;;15.02;84.97
42633;BME280;28261;53.304;-6.284;2022-10-28T11:22:39;100355.28;;;15.03;84.34
42633;BME280;28261;53.304;-6.284;2022-10-28T11:25:11;100358.69;;;15.05;85.02
42633;BME280;28261;53.304;-6.284;2022-10-28T11:27:31;100350.09;;;15.11;85.04
42633;BME280;28261;53.304;-6.284;2022-10-28T11:29:36;100351.50;;;15.15;84.99
42633;BME280;28261;53.304;-6.284;2022-10-28T11:32:05;100352.88;;;15.19;84.96
42633;BME280;28261;53.304;-6.284;2022-10-28T11:34:25;100358.34;;;15.28;85.21
42633;BME280;28261;53.304;-6.284;2022-10-28T11:36:36;100359.34;;;15.36;85.22
42633;BME280;28261;53.304;-6.284;2022-10-28T11:39:04;100351.03;;;15.39;84.92
42633;BME280;28261;53.304;-6.284;2022-10-28T11:41:23;100359.47;;;15.45;85.26
42633;BME280;28261;53.304;-6.284;2022-10-28T11:43:35;100348.63;;;15.46;84.54
42633;BME280;28261;53.304;-6.284;2022-10-28T11:45:46;100349.91;;;15.42;84.37
42633;BME280;28261;53.304;-6.284;2022-10-28T11:48:05;100356.91;;;15.43;85.29
42633;BME280;28261;53.304;-6.284;2022-10-28T11:50:30;100342.84;;;15.51;85.25
42633;BME280;28261;53.304;-6.284;2022-10-28T11:52:47;100347.63;;;15.47;84.20
42633;BME280;28261;53.304;-6.284;2022-10-28T11:55:02;100337.97;;;15.46;84.74
42633;BME280;28261;53.304;-6.284;2022-10-28T11:57:17;100338.38;;;15.42;84.61
42633;BME280;28261;53.304;-6.284;2022-10-28T11:59:42;100334.31;;;15.37;85.25
42633;BME280;28261;53.304;-6.284;2022-10-28T12:02:00;100324.91;;;15.33;84.58
42633;BME280;28261;53.304;-6.284;2022-10-28T12:04:42;100340.38;;;15.30;85.07
42633;BME280;28261;53.304;-6.284;2022-10-28T12:09:26;100317.88;;;15.22;84.49
42633;BME280;28261;53.304;-6.284;2022-10-28T12:11:52;100307.91;;;15.25;83.31
42633;BME280;28261;53.304;-6.284;2022-10-28T12:14:08;100314.94;;;15.26;83.55
42633;BME280;28261;53.304;-6.284;2022-10-28T12:16:21;100306.94;;;15.26;83.71
42633;BME280;28261;53.304;-6.284;2022-10-28T12:18:32;100313.09;;;15.26;84.32
42633;BME280;28261;53.304;-6.284;2022-10-28T12:20:44;100301.03;;;15.22;83.41
42633;BME280;28261;53.304;-6.284;2022-10-28T12:22:52;100300.47;;;15.18;83.61
42633;BME280;28261;53.304;-6.284;2022-10-28T12:25:00;100304.97;;;15.18;83.95
42633;BME280;28261;53.304;-6.284;2022-10-28T12:27:11;100301.59;;;15.16;82.87
42633;BME280;28261;53.304;-6.284;2022-10-28T12:29:24;100317.22;;;15.11;82.56
42633;BME280;28261;53.304;-6.284;2022-10-28T12:31:32;100331.13;;;15.04;81.95
42633;BME280;28261;53.304;-6.284;2022-10-28T12:33:41;100318.34;;;14.98;81.87
42633;BME280;28261;53.304;-6.284;2022-10-28T12:35:52;100313.84;;;14.99;82.62
42633;BME280;28261;53.304;-6.284;2022-10-28T13:19:25;100346.03;;;14.87;82.16
42633;BME280;28261;53.304;-6.284;2022-10-28T13:21:47;100337.59;;;14.92;82.37
42633;BME280;28261;53.304;-6.284;2022-10-28T13:24:01;100325.94;;;14.93;82.54
42633;BME280;28261;53.304;-6.284;2022-10-28T13:26:20;100334.78;;;14.94;82.33
42633;BME280;28261;53.304;-6.284;2022-10-28T13:28:33;100316.09;;;14.94;82.71
42633;BME280;28261;53.304;-6.284;2022-10-28T13:30:37;100315.94;;;14.95;82.92
42633;BME280;28261;53.304;-6.284;2022-10-28T13:33:02;100312.44;;;14.95;82.81
42633;BME280;28261;53.304;-6.284;2022-10-28T13:35:12;100319.34;;;14.97;83.10
42633;BME280;28261;53.304;-6.284;2022-10-28T13:37:19;100329.88;;;14.99;83.33
42633;BME280;28261;53.304;-6.284;2022-10-28T13:39:38;100320.88;;;15.00;83.45
42633;BME280;28261;53.304;-6.284;2022-10-28T13:41:44;100322.16;;;14.96;83.62
42633;BME280;28261;53.304;-6.284;2022-10-28T13:49:27;100334.75;;;15.03;82.95
42633;BME280;28261;53.304;-6.284;2022-10-28T13:51:43;100332.97;;;15.04;82.69
42633;BME280;28261;53.304;-6.284;2022-10-28T13:53:55;100345.44;;;15.03;83.19
42633;BME280;28261;53.304;-6.284;2022-10-28T13:55:59;100341.94;;;15.03;82.89
42633;BME280;28261;53.304;-6.284;2022-10-28T13:58:20;100344.63;;;15.03;83.34
42633;BME280;28261;53.304;-6.284;2022-10-28T14:00:36;100351.66;;;15.04;82.63
42633;BME280;28261;53.304;-6.284;2022-10-28T14:02:41;100347.13;;;15.04;82.55
42633;BME280;28261;53.304;-6.284;2022-10-28T14:04:57;100359.50;;;15.05;82.68
42633;BME280;28261;53.304;-6.284;2022-10-28T14:07:17;100348.69;;;15.07;81.87
42633;BME280;28261;53.304;-6.284;2022-10-28T14:09:26;100345.03;;;15.08;81.51
42633;BME280;28261;53.304;-6.284;2022-10-28T14:11:30;100353.03;;;15.08;81.98
42633;BME280;28261;53.304;-6.284;2022-10-28T14:13:36;100344.75;;;15.11;82.40
42633;BME280;28261;53.304;-6.284;2022-10-28T14:15:41;100361.47;;;15.13;81.63
42633;BME280;28261;53.304;-6.284;2022-10-28T14:17:48;100353.47;;;15.13;80.94
42633;BME280;28261;53.304;-6.284;2022-10-28T14:19:56;100364.25;;;15.12;80.91
42633;BME280;28261;53.304;-6.284;2022-10-28T14:22:02;100372.41;;;15.10;80.79
42633;BME280;28261;53.304;-6.284;2022-10-28T14:24:12;100375.22;;;15.09;81.33
42633;BME280;28261;53.304;-6.284;2022-10-28T14:26:16;100370.75;;;15.09;81.75
42633;BME280;28261;53.304;-6.284;2022-10-28T14:28:54;100377.75;;;15.10;81.93
42633;BME280;28261;53.304;-6.284;2022-10-28T14:31:18;100378.47;;;15.12;82.21
42633;BME280;28261;53.304;-6.284;2022-10-28T14:33:25;100372.84;;;15.15;82.40
42633;BME280;28261;53.304;-6.284;2022-10-28T14:35:37;100364.84;;;15.15;82.04
42633;BME280;28261;53.304;-6.284;2022-10-28T14:38:22;100373.13;;;15.12;82.06
42633;BME280;28261;53.304;-6.284;2022-10-28T14:40:37;100378.63;;;15.11;81.71
42633;BME280;28261;53.304;-6.284;2022-10-28T14:42:54;100384.22;;;15.07;81.31
42633;BME280;28261;53.304;-6.284;2022-10-28T14:45:16;100378.06;;;15.07;81.66
42633;BME280;28261;53.304;-6.284;2022-10-28T14:47:42;100381.97;;;15.03;81.63
42633;BME280;28261;53.304;-6.284;2022-10-28T14:49:58;100379.47;;;15.01;81.94
42633;BME280;28261;53.304;-6.284;2022-10-28T14:52:05;100375.25;;;14.99;82.31
42633;BME280;28261;53.304;-6.284;2022-10-28T14:54:14;100383.38;;;14.97;82.09
42633;BME280;28261;53.304;-6.284;2022-10-28T14:56:23;100378.34;;;14.94;81.81
42633;BME280;28261;53.304;-6.284;2022-10-28T14:58:29;100382.81;;;14.94;81.48
42633;BME280;28261;53.304;-6.284;2022-10-28T15:00:35;100379.75;;;14.88;81.75
42633;BME280;28261;53.304;-6.284;2022-10-28T15:02:43;100388.72;;;14.87;82.44
42633;BME280;28261;53.304;-6.284;2022-10-28T15:04:59;100386.22;;;14.86;81.98
42633;BME280;28261;53.304;-6.284;2022-10-28T15:07:04;100383.53;;;14.86;82.34
42633;BME280;28261;53.304;-6.284;2022-10-28T15:09:16;100392.66;;;14.83;82.59
42633;BME280;28261;53.304;-6.284;2022-10-28T15:11:22;100395.19;;;14.85;82.40
42633;BME280;28261;53.304;-6.284;2022-10-28T15:13:26;100384.78;;;14.82;82.47
42633;BME280;28261;53.304;-6.284;2022-10-28T15:15:31;100395.47;;;14.82;82.63
42633;BME280;28261;53.304;-6.284;2022-10-28T15:17:36;100382.25;;;14.80;82.69
42633;BME280;28261;53.304;-6.284;2022-10-28T15:19:41;100397.56;;;14.78;82.97
42633;BME280;28261;53.304;-6.284;2022-10-28T15:22:00;100389.84;;;14.75;82.84
42633;BME280;28261;53.304;-6.284;2022-10-28T15:24:04;100395.31;;;14.74;83.06
42633;BME280;28261;53.304;-6.284;2022-10-28T15:26:11;100404.44;;;14.71;83.11
42633;BME280;28261;53.304;-6.284;2022-10-28T15:28:16;100398.38;;;14.69;83.43
42633;BME280;28261;53.304;-6.284;2022-10-28T15:30:23;100404.13;;;14.64;83.56
42633;BME280;28261;53.304;-6.284;2022-10-28T15:32:32;100408.63;;;14.64;83.91
42633;BME280;28261;53.304;-6.284;2022-10-28T15:34:36;100399.06;;;14.61;84.32
42633;BME280;28261;53.304;-6.284;2022-10-28T15:36:39;100408.03;;;14.60;84.57
42633;BME280;28261;53.304;-6.284;2022-10-28T15:38:43;100412.78;;;14.56;84.73
42633;BME280;28261;53.304;-6.284;2022-10-28T15:40:48;100407.44;;;14.56;84.70
42633;BME280;28261;53.304;-6.284;2022-10-28T15:42:56;100405.91;;;14.54;84.71
42633;BME280;28261;53.304;-6.284;2022-10-28T15:45:03;100407.16;;;14.50;84.87
42633;BME280;28261;53.304;-6.284;2022-10-28T15:47:20;100409.97;;;14.48;85.17
42633;BME280;28261;53.304;-6.284;2022-10-28T15:49:31;100410.94;;;14.47;85.19
42633;BME280;28261;53.304;-6.284;2022-10-28T15:51:35;100399.56;;;14.45;85.07
42633;BME280;28261;53.304;-6.284;2022-10-28T15:53:40;100398.59;;;14.46;85.08
42633;BME280;28261;53.304;-6.284;2022-10-28T15:55:44;100397.88;;;14.44;85.14
42633;BME280;28261;53.304;-6.284;2022-10-28T16:00:28;100407.13;;;14.40;85.53
42633;BME280;28261;53.304;-6.284;2022-10-28T16:02:39;100401.94;;;14.38;85.40
42633;BME280;28261;53.304;-6.284;2022-10-28T16:04:43;100408.25;;;14.37;85.73
42633;BME280;28261;53.304;-6.284;2022-10-28T16:06:47;100397.84;;;14.34;86.13
42633;BME280;28261;53.304;-6.284;2022-10-28T16:09:04;100416.66;;;14.33;86.14
42633;BME280;28261;53.304;-6.284;2022-10-28T16:11:14;100403.59;;;14.30;86.59
42633;BME280;28261;53.304;-6.284;2022-10-28T16:13:24;100417.91;;;14.29;86.70
42633;BME280;28261;53.304;-6.284;2022-10-28T16:15:31;100421.69;;;14.26;86.83
42633;BME280;28261;53.304;-6.284;2022-10-28T16:17:35;100422.78;;;14.24;86.92
42633;BME280;28261;53.304;-6.284;2022-10-28T16:19:42;100429.22;;;14.21;86.97
42633;BME280;28261;53.304;-6.284;2022-10-28T16:21:46;100439.19;;;14.19;87.04
42633;BME280;28261;53.304;-6.284;2022-10-28T16:23:52;100433.41;;;14.14;87.51
42633;BME280;28261;53.304;-6.284;2022-10-28T16:25:57;100443.34;;;14.12;87.23
42633;BME280;28261;53.304;-6.284;2022-10-28T16:28:01;100447.25;;;14.08;87.51
42633;BME280;28261;53.304;-6.284;2022-10-28T16:30:05;100445.69;;;14.05;87.79
42633;BME280;28261;53.304;-6.284;2022-10-28T16:32:11;100456.63;;;14.02;88.07
42633;BME280;28261;53.304;-6.284;2022-10-28T16:34:15;100459.56;;;13.99;88.43
42633;BME280;28261;53.304;-6.284;2022-10-28T16:36:19;100458.84;;;13.97;88.12
42633;BME280;28261;53.304;-6.284;2022-10-28T16:38:22;100462.50;;;13.96;88.50
42633;BME280;28261;53.304;-6.284;2022-10-28T16:40:26;100466.13;;;13.95;88.41
42633;BME280;28261;53.304;-6.284;2022-10-28T16:42:49;100465.53;;;13.91;88.76
42633;BME280;28261;53.304;-6.284;2022-10-28T16:44:54;100474.63;;;13.88;88.74
42633;BME280;28261;53.304;-6.284;2022-10-28T16:46:58;100474.78;;;13.87;89.12
42633;BME280;28261;53.304;-6.284;2022-10-28T16:49:03;100461.72;;;13.84;89.04
42633;BME280;28261;53.304;-6.284;2022-10-28T16:51:11;100480.50;;;13.82;89.59
42633;BME280;28261;53.304;-6.284;2022-10-28T16:53:17;100474.44;;;13.80;89.63
42633;BME280;28261;53.304;-6.284;2022-10-28T16:55:21;100479.09;;;13.78;89.61
42633;BME280;28261;53.304;-6.284;2022-10-28T16:57:25;100490.97;;;13.74;90.02
42633;BME280;28261;53.304;-6.284;2022-10-28T16:59:29;100491.25;;;13.71;91.02
42633;BME280;28261;53.304;-6.284;2022-10-28T17:01:33;100492.34;;;13.68;90.40
42633;BME280;28261;53.304;-6.284;2022-10-28T17:03:37;100485.31;;;13.67;90.53
42633;BME280;28261;53.304;-6.284;2022-10-28T17:05:42;100486.41;;;13.65;91.29
42633;BME280;28261;53.304;-6.284;2022-10-28T17:07:46;100485.56;;;13.64;91.05
42633;BME280;28261;53.304;-6.284;2022-10-28T17:09:50;100487.50;;;13.62;91.00
42633;BME280;28261;53.304;-6.284;2022-10-28T17:11:54;100483.28;;;13.60;91.47
42633;BME280;28261;53.304;-6.284;2022-10-28T17:13:57;100495.16;;;13.56;91.81
42633;BME280;28261;53.304;-6.284;2022-10-28T17:16:01;100485.50;;;13.54;91.87
42633;BME280;28261;53.304;-6.284;2022-10-28T17:18:05;100481.16;;;13.53;92.11
42633;BME280;28261;53.304;-6.284;2022-10-28T17:20:10;100485.59;;;13.53;91.85
42633;BME280;28261;53.304;-6.284;2022-10-28T17:22:18;100486.34;;;13.55;91.71
42633;BME280;28261;53.304;-6.284;2022-10-28T17:24:29;100491.81;;;13.53;92.23
42633;BME280;28261;53.304;-6.284;2022-10-28T17:26:33;100493.50;;;13.54;92.02
42633;BME280;28261;53.304;-6.284;2022-10-28T17:28:38;100479.31;;;13.54;92.44
42633;BME280;28261;53.304;-6.284;2022-10-28T17:30:42;100487.69;;;13.49;92.15
42633;BME280;28261;53.304;-6.284;2022-10-28T17:32:49;100487.69;;;13.49;92.67
42633;BME280;28261;53.304;-6.284;2022-10-28T17:34:53;100495.81;;;13.48;93.00
42633;BME280;28261;53.304;-6.284;2022-10-28T17:36:57;100496.91;;;13.45;93.33
42633;BME280;28261;53.304;-6.284;2022-10-28T17:39:03;100500.53;;;13.44;93.38
42633;BME280;28261;53.304;-6.284;2022-10-28T17:41:06;100503.47;;;13.41;93.72
42633;BME280;28261;53.304;-6.284;2022-10-28T17:43:11;100492.81;;;13.41;93.67
42633;BME280;28261;53.304;-6.284;2022-10-28T17:45:15;100504.31;;;13.42;93.88
42633;BME280;28261;53.304;-6.284;2022-10-28T17:47:23;100500.81;;;13.41;93.64
42633;BME280;28261;53.304;-6.284;2022-10-28T17:49:28;100506.13;;;13.41;93.74
42633;BME280;28261;53.304;-6.284;2022-10-28T17:51:35;100511.59;;;13.40;93.69
42633;BME280;28261;53.304;-6.284;2022-10-28T17:53:42;100521.38;;;13.39;93.51
42633;BME280;28261;53.304;-6.284;2022-10-28T17:55:56;100519.81;;;13.36;93.69
42633;BME280;28261;53.304;-6.284;2022-10-28T17:58:01;100522.56;;;13.35;93.35
42633;BME280;28261;53.304;-6.284;2022-10-28T18:00:06;100526.19;;;13.34;93.43
42633;BME280;28261;53.304;-6.284;2022-10-28T18:02:14;100529.97;;;13.31;93.49
42633;BME280;28261;53.304;-6.284;2022-10-28T18:04:18;100536.41;;;13.29;94.31
42633;BME280;28261;53.304;-6.284;2022-10-28T18:06:28;100538.59;;;13.24;94.53
42633;BME280;28261;53.304;-6.284;2022-10-28T18:08:32;100537.00;;;13.21;94.07
42633;BME280;28261;53.304;-6.284;2022-10-28T18:10:51;100533.66;;;13.19;94.98
42633;BME280;28261;53.304;-6.284;2022-10-28T18:12:59;100524.78;;;13.18;94.42
42633;BME280;28261;53.304;-6.284;2022-10-28T18:15:04;100536.53;;;13.16;95.03
42633;BME280;28261;53.304;-6.284;2022-10-28T18:17:11;100540.28;;;13.13;94.58
42633;BME280;28261;53.304;-6.284;2022-10-28T18:19:18;100550.94;;;13.13;94.40
42633;BME280;28261;53.304;-6.284;2022-10-28T18:21:23;100534.97;;;13.13;94.87
42633;BME280;28261;53.304;-6.284;2022-10-28T18:23:27;100542.94;;;13.13;94.43
42633;BME280;28261;53.304;-6.284;2022-10-28T18:25:32;100541.28;;;13.12;94.56
42633;BME280;28261;53.304;-6.284;2022-10-28T18:27:39;100550.94;;;13.13;94.09
42633;BME280;28261;53.304;-6.284;2022-10-28T18:29:45;100553.59;;;13.13;94.51
42633;BME280;28261;53.304;-6.284;2022-10-28T18:31:50;100566.06;;;13.13;94.41
42633;BME280;28261;53.304;-6.284;2022-10-28T18:33:56;100559.91;;;13.12;94.36
42633;BME280;28261;53.304;-6.284;2022-10-28T18:36:04;100575.88;;;13.12;94.67
42633;BME280;28261;53.304;-6.284;2022-10-28T18:38:10;100570.56;;;13.12;94.29
42633;BME280;28261;53.304;-6.284;2022-10-28T18:40:15;100578.63;;;13.11;94.66
42633;BME280;28261;53.304;-6.284;2022-10-28T18:42:19;100583.13;;;13.10;94.51
42633;BME280;28261;53.304;-6.284;2022-10-28T18:44:23;100587.59;;;13.10;94.10
42633;BME280;28261;53.304;-6.284;2022-10-28T18:46:35;100585.91;;;13.09;94.56
42633;BME280;28261;53.304;-6.284;2022-10-28T18:48:39;100600.19;;;13.08;94.54
42633;BME280;28261;53.304;-6.284;2022-10-28T18:50:53;100594.84;;;13.08;93.93
42633;BME280;28261;53.304;-6.284;2022-10-28T18:52:59;100585.06;;;13.08;93.93
42633;BME280;28261;53.304;-6.284;2022-10-28T18:55:05;100587.75;;;13.08;94.44
42633;BME280;28261;53.304;-6.284;2022-10-28T18:57:11;100592.19;;;13.08;94.15
42633;BME280;28261;53.304;-6.284;2022-10-28T18:59:19;100583.38;;;13.07;93.99
42633;BME280;28261;53.304;-6.284;2022-10-28T19:01:25;100591.22;;;13.09;94.00
42633;BME280;28261;53.304;-6.284;2022-10-28T19:03:31;100592.06;;;13.09;94.14
42633;BME280;28261;53.304;-6.284;2022-10-28T19:05:36;100590.41;;;13.08;93.97
42633;BME280;28261;53.304;-6.284;2022-10-28T19:07:41;100596.69;;;13.07;94.16
42633;BME280;28261;53.304;-6.284;2022-10-28T19:09:46;100605.50;;;13.08;94.00
42633;BME280;28261;53.304;-6.284;2022-10-28T19:11:50;100618.94;;;13.06;94.32
42633;BME280;28261;53.304;-6.284;2022-10-28T19:13:56;100611.78;;;13.07;94.76
42633;BME280;28261;53.304;-6.284;2022-10-28T19:16:02;100613.59;;;13.06;94.09
42633;BME280;28261;53.304;-6.284;2022-10-28T19:18:06;100617.22;;;13.05;94.27
42633;BME280;28261;53.304;-6.284;2022-10-28T19:20:14;100611.06;;;13.04;93.91